sensor_id;sensor_type;location;lat;lon;timestamp;pressure;altitude;pressure_sealevel;temperature;humidity
54262;BME280;40174;52.364;6.452;2022-09-21T00:00:38;102417.53;;;6.74;100.00
54262;BME280;40174;52.364;6.452;2022-09-21T00:03:05;102414.16;;;6.70;100.00
54262;BME280;40174;52.364;6.452;2022-09-21T00:05:34;102415.16;;;6.68;100.00
54262;BME280;40174;52.364;6.452;2022-09-21T00:08:01;102417.09;;;6.62;100.00
54262;BME280;40174;52.364;6.452;2022-09-21T00:10:29;102418.94;;;6.60;100.00
54262;BME280;40174;52.364;6.452;2022-09-21T00:12:57;102421.69;;;6.57;100.00
54262;BME280;40174;52.364;6.452;2022-09-21T00:15:25;102423.50;;;6.55;100.00
54262;BME280;40174;52.364;6.452;2022-09-21T00:17:53;102420.03;;;6.55;100.00
54262;BME280;40174;52.364;6.452;2022-09-21T00:20:20;102416.53;;;6.54;100.00
54262;BME280;40174;52.364;6.452;2022-09-21T00:22:48;102421.91;;;6.51;100.00
54262;BME280;40174;52.364;6.452;2022-09-21T00:25:16;102422.03;;;6.48;100.00
54262;BME280;40174;52.364;6.452;2022-09-21T00:27:43;102418.66;;;6.44;100.00
54262;BME280;40174;52.364;6.452;2022-09-21T00:30:12;102423.16;;;6.41;100.00
54262;BME280;40174;52.364;6.452;2022-09-21T00:32:39;102423.16;;;6.41;100.00
54262;BME280;40174;52.364;6.452;2022-09-21T00:35:07;102416.22;;;6.40;100.00
54262;BME280;40174;52.364;6.452;2022-09-21T00:37:34;102412.09;;;6.33;100.00
54262;BME280;40174;52.364;6.452;2022-09-21T00:40:03;102416.66;;;6.28;100.00
54262;BME280;40174;52.364;6.452;2022-09-21T00:42:32;102416.78;;;6.24;100.00
54262;BME280;40174;52.364;6.452;2022-09-21T00:45:00;102428.13;;;6.25;100.00
54262;BME280;40174;52.364;6.452;2022-09-21T00:47:30;102420.41;;;6.20;100.00
54262;BME280;40174;52.364;6.452;2022-09-21T00:50:00;102418.81;;;6.16;100.00
54262;BME280;40174;52.364;6.452;2022-09-21T00:52:31;102423.34;;;6.13;100.00
54262;BME280;40174;52.364;6.452;2022-09-21T00:55:03;102412.88;;;6.11;100.00
54262;BME280;40174;52.364;6.452;2022-09-21T00:57:31;102422.56;;;6.09;100.00
54262;BME280;40174;52.364;6.452;2022-09-21T01:00:02;102415.72;;;6.05;100.00
54262;BME280;40174;52.364;6.452;2022-09-21T01:02:29;102414.06;;;6.02;100.00
54262;BME280;40174;52.364;6.452;2022-09-21T01:04:56;102429.09;;;5.99;100.00
54262;BME280;40174;52.364;6.452;2022-09-21T01:07:25;102423.03;;;5.97;100.00
54262;BME280;40174;52.364;6.452;2022-09-21T01:09:55;102421.38;;;5.94;100.00
54262;BME280;40174;52.364;6.452;2022-09-21T01:12:39;102429.31;;;5.91;100.00
54262;BME280;40174;52.364;6.452;2022-09-21T01:15:18;102428.47;;;5.91;100.00
54262;BME280;40174;52.364;6.452;2022-09-21T01:17:53;102425.94;;;5.88;100.00
54262;BME280;40174;52.364;6.452;2022-09-21T01:20:37;102431.25;;;5.86;100.00
54262;BME280;40174;52.364;6.452;2022-09-21T01:23:20;102427.84;;;5.82;100.00
54262;BME280;40174;52.364;6.452;2022-09-21T01:26:01;102429.75;;;5.79;100.00
54262;BME280;40174;52.364;6.452;2022-09-21T01:28:50;102435.88;;;5.78;100.00
54262;BME280;40174;52.364;6.452;2022-09-21T01:31:22;102426.47;;;5.72;100.00
54262;BME280;40174;52.364;6.452;2022-09-21T01:33:52;102423.00;;;5.72;100.00
54262;BME280;40174;52.364;6.452;2022-09-21T01:36:23;102417.84;;;5.69;100.00
54262;BME280;40174;52.364;6.452;2022-09-21T01:38:55;102423.94;;;5.69;100.00
54262;BME280;40174;52.364;6.452;2022-09-21T01:41:25;102426.69;;;5.66;100.00
54262;BME280;40174;52.364;6.452;2022-09-21T01:43:57;102423.28;;;5.62;100.00
54262;BME280;40174;52.364;6.452;2022-09-21T01:46:33;102418.16;;;5.59;100.00
54262;BME280;40174;52.364;6.452;2022-09-21T01:49:05;102417.31;;;5.59;100.00
54262;BME280;40174;52.364;6.452;2022-09-21T01:51:35;102413.06;;;5.55;100.00
54262;BME280;40174;52.364;6.452;2022-09-21T01:54:10;102414.03;;;5.52;100.00
54262;BME280;40174;52.364;6.452;2022-09-21T01:56:40;102424.53;;;5.52;100.00
54262;BME280;40174;52.364;6.452;2022-09-21T01:59:13;102428.03;;;5.51;100.00
54262;BME280;40174;52.364;6.452;2022-09-21T02:01:46;102421.16;;;5.49;100.00
54262;BME280;40174;52.364;6.452;2022-09-21T02:04:14;102422.22;;;5.43;100.00
54262;BME280;40174;52.364;6.452;2022-09-21T02:06:43;102419.63;;;5.41;100.00
54262;BME280;40174;52.364;6.452;2022-09-21T02:09:11;102424.13;;;5.38;100.00
54262;BME280;40174;52.364;6.452;2022-09-21T02:11:37;102428.63;;;5.34;100.00
54262;BME280;40174;52.364;6.452;2022-09-21T02:14:10;102429.50;;;5.33;100.00
54262;BME280;40174;52.364;6.452;2022-09-21T02:16:39;102415.59;;;5.31;100.00
54262;BME280;40174;52.364;6.452;2022-09-21T02:19:13;102419.19;;;5.29;100.00
54262;BME280;40174;52.364;6.452;2022-09-21T02:21:50;102420.09;;;5.28;100.00
54262;BME280;40174;52.364;6.452;2022-09-21T02:24:24;102424.50;;;5.27;100.00
54262;BME280;40174;52.364;6.452;2022-09-21T02:27:00;102418.47;;;5.24;100.00
54262;BME280;40174;52.364;6.452;2022-09-21T02:29:36;102414.19;;;5.21;100.00
54262;BME280;40174;52.364;6.452;2022-09-21T02:32:06;102422.09;;;5.19;100.00
54262;BME280;40174;52.364;6.452;2022-09-21T02:34:42;102416.84;;;5.19;100.00
54262;BME280;40174;52.364;6.452;2022-09-21T02:37:16;102417.81;;;5.17;100.00
54262;BME280;40174;52.364;6.452;2022-09-21T02:39:47;102421.38;;;5.16;100.00
54262;BME280;40174;52.364;6.452;2022-09-21T02:42:21;102420.56;;;5.14;100.00
54262;BME280;40174;52.364;6.452;2022-09-21T02:44:55;102417.16;;;5.10;100.00
54262;BME280;40174;52.364;6.452;2022-09-21T02:47:28;102426.84;;;5.08;100.00
54262;BME280;40174;52.364;6.452;2022-09-21T02:50:00;102418.28;;;5.03;100.00
54262;BME280;40174;52.364;6.452;2022-09-21T02:52:29;102426.28;;;4.98;100.00
54262;BME280;40174;52.364;6.452;2022-09-21T02:54:59;102415.84;;;4.97;100.00
54262;BME280;40174;52.364;6.452;2022-09-21T02:57:26;102417.63;;;4.95;100.00
54262;BME280;40174;52.364;6.452;2022-09-21T02:59:54;102413.41;;;4.91;100.00
54262;BME280;40174;52.364;6.452;2022-09-21T03:02:21;102414.34;;;4.88;100.00
54262;BME280;40174;52.364;6.452;2022-09-21T03:04:48;102414.44;;;4.87;100.00
54262;BME280;40174;52.364;6.452;2022-09-21T03:07:15;102411.84;;;4.85;100.00
54262;BME280;40174;52.364;6.452;2022-09-21T03:09:42;102418.06;;;4.81;100.00
54262;BME280;40174;52.364;6.452;2022-09-21T03:12:09;102422.50;;;4.79;100.00
54262;BME280;40174;52.364;6.452;2022-09-21T03:14:36;102419.06;;;4.77;100.00
54262;BME280;40174;52.364;6.452;2022-09-21T03:17:04;102408.69;;;4.74;100.00
54262;BME280;40174;52.364;6.452;2022-09-21T03:19:30;102413.97;;;4.72;100.00
54262;BME280;40174;52.364;6.452;2022-09-21T03:21:57;102422.75;;;4.71;100.00
54262;BME280;40174;52.364;6.452;2022-09-21T03:24:24;102418.47;;;4.69;100.00
54262;BME280;40174;52.364;6.452;2022-09-21T03:27:11;102410.75;;;4.64;100.00
54262;BME280;40174;52.364;6.452;2022-09-21T03:29:38;102410.81;;;4.61;100.00
54262;BME280;40174;52.364;6.452;2022-09-21T03:32:06;102414.34;;;4.60;100.00
54262;BME280;40174;52.364;6.452;2022-09-21T03:34:33;102418.78;;;4.58;100.00
54262;BME280;40174;52.364;6.452;2022-09-21T03:37:00;102416.19;;;4.56;100.00
54262;BME280;40174;52.364;6.452;2022-09-21T03:39:27;102422.34;;;4.55;100.00
54262;BME280;40174;52.364;6.452;2022-09-21T03:41:53;102418.97;;;4.52;100.00
54262;BME280;40174;52.364;6.452;2022-09-21T03:44:21;102425.03;;;4.52;100.00
54262;BME280;40174;52.364;6.452;2022-09-21T03:46:48;102423.38;;;4.50;100.00
54262;BME280;40174;52.364;6.452;2022-09-21T03:49:16;102424.38;;;4.46;100.00
54262;BME280;40174;52.364;6.452;2022-09-21T03:51:43;102428.78;;;4.44;100.00
54262;BME280;40174;52.364;6.452;2022-09-21T03:54:10;102428.75;;;4.45;100.00
54262;BME280;40174;52.364;6.452;2022-09-21T03:56:37;102436.50;;;4.48;100.00
54262;BME280;40174;52.364;6.452;2022-09-21T03:59:03;102426.97;;;4.46;100.00
54262;BME280;40174;52.364;6.452;2022-09-21T04:01:30;102434.13;;;4.41;100.00
54262;BME280;40174;52.364;6.452;2022-09-21T04:03:57;102429.84;;;4.38;100.00
54262;BME280;40174;52.364;6.452;2022-09-21T04:06:24;102426.41;;;4.36;100.00
54262;BME280;40174;52.364;6.452;2022-09-21T04:08:51;102418.66;;;4.33;100.00
54262;BME280;40174;52.364;6.452;2022-09-21T04:11:19;102421.41;;;4.28;100.00
54262;BME280;40174;52.364;6.452;2022-09-21T04:13:48;102420.72;;;4.22;100.00
54262;BME280;40174;52.364;6.452;2022-09-21T04:16:15;102420.78;;;4.19;100.00
54262;BME280;40174;52.364;6.452;2022-09-21T04:18:42;102419.16;;;4.14;100.00
54262;BME280;40174;52.364;6.452;2022-09-21T04:21:09;102426.19;;;4.12;100.00
54262;BME280;40174;52.364;6.452;2022-09-21T04:23:37;102425.41;;;4.10;100.00
54262;BME280;40174;52.364;6.452;2022-09-21T04:26:04;102421.03;;;4.09;100.00
54262;BME280;40174;52.364;6.452;2022-09-21T04:28:30;102426.41;;;4.05;100.00
54262;BME280;40174;52.364;6.452;2022-09-21T04:30:57;102429.88;;;4.05;100.00
54262;BME280;40174;52.364;6.452;2022-09-21T04:33:23;102435.16;;;4.04;100.00
54262;BME280;40174;52.364;6.452;2022-09-21T04:35:53;102433.47;;;4.01;100.00
54262;BME280;40174;52.364;6.452;2022-09-21T04:38:20;102429.13;;;4.02;100.00
54262;BME280;40174;52.364;6.452;2022-09-21T04:40:55;102438.78;;;3.98;100.00
54262;BME280;40174;52.364;6.452;2022-09-21T04:43:21;102434.47;;;3.97;100.00
54262;BME280;40174;52.364;6.452;2022-09-21T04:45:48;102438.88;;;3.95;100.00
54262;BME280;40174;52.364;6.452;2022-09-21T04:48:15;102444.16;;;3.93;100.00
54262;BME280;40174;52.364;6.452;2022-09-21T04:50:42;102440.72;;;3.91;100.00
54262;BME280;40174;52.364;6.452;2022-09-21T04:53:08;102434.63;;;3.91;100.00
54262;BME280;40174;52.364;6.452;2022-09-21T04:55:35;102443.25;;;3.94;100.00
54262;BME280;40174;52.364;6.452;2022-09-21T04:58:03;102441.53;;;3.93;100.00
54262;BME280;40174;52.364;6.452;2022-09-21T05:00:30;102447.59;;;3.95;100.00
54262;BME280;40174;52.364;6.452;2022-09-21T05:02:57;102440.63;;;3.94;100.00
54262;BME280;40174;52.364;6.452;2022-09-21T05:05:23;102442.38;;;3.94;100.00
54262;BME280;40174;52.364;6.452;2022-09-21T05:07:50;102451.03;;;3.98;100.00
54262;BME280;40174;52.364;6.452;2022-09-21T05:10:16;102437.94;;;3.98;100.00
54262;BME280;40174;52.364;6.452;2022-09-21T05:12:42;102446.66;;;3.98;100.00
54262;BME280;40174;52.364;6.452;2022-09-21T05:15:10;102450.19;;;3.97;100.00
54262;BME280;40174;52.364;6.452;2022-09-21T05:17:36;102453.66;;;3.98;100.00
54262;BME280;40174;52.364;6.452;2022-09-21T05:20:04;102455.41;;;3.97;100.00
54262;BME280;40174;52.364;6.452;2022-09-21T05:22:31;102460.56;;;3.99;100.00
54262;BME280;40174;52.364;6.452;2022-09-21T05:24:57;102458.03;;;3.97;100.00
54262;BME280;40174;52.364;6.452;2022-09-21T05:27:24;102457.09;;;3.98;100.00
54262;BME280;40174;52.364;6.452;2022-09-21T05:29:51;102469.25;;;4.01;100.00
54262;BME280;40174;52.364;6.452;2022-09-21T05:32:23;102471.00;;;4.00;100.00
54262;BME280;40174;52.364;6.452;2022-09-21T05:35:01;102474.53;;;3.99;100.00
54262;BME280;40174;52.364;6.452;2022-09-21T05:37:39;102471.00;;;4.00;100.00
54262;BME280;40174;52.364;6.452;2022-09-21T05:40:10;102471.94;;;3.99;100.00
54262;BME280;40174;52.364;6.452;2022-09-21T05:42:37;102478.88;;;4.00;100.00
54262;BME280;40174;52.364;6.452;2022-09-21T05:45:05;102480.53;;;4.03;100.00
54262;BME280;40174;52.364;6.452;2022-09-21T05:47:38;102483.16;;;4.03;100.00
54262;BME280;40174;52.364;6.452;2022-09-21T05:50:19;102471.84;;;4.02;100.00
54262;BME280;40174;52.364;6.452;2022-09-21T05:52:53;102480.53;;;4.03;100.00
54262;BME280;40174;52.364;6.452;2022-09-21T05:55:30;102481.44;;;4.02;100.00
54262;BME280;40174;52.364;6.452;2022-09-21T05:58:08;102490.16;;;4.02;100.00
54262;BME280;40174;52.364;6.452;2022-09-21T06:00:41;102477.06;;;4.02;100.00
54262;BME280;40174;52.364;6.452;2022-09-21T06:03:26;102482.19;;;4.07;100.00
54262;BME280;40174;52.364;6.452;2022-09-21T06:05:54;102479.44;;;4.11;100.00
54262;BME280;40174;52.364;6.452;2022-09-21T06:08:20;102491.53;;;4.15;100.00
54262;BME280;40174;52.364;6.452;2022-09-21T06:10:47;102497.47;;;4.22;100.00
54262;BME280;40174;52.364;6.452;2022-09-21T06:13:14;102495.59;;;4.26;100.00
54262;BME280;40174;52.364;6.452;2022-09-21T06:15:41;102494.63;;;4.30;100.00
54262;BME280;40174;52.364;6.452;2022-09-21T06:18:08;102495.41;;;4.33;100.00
54262;BME280;40174;52.364;6.452;2022-09-21T06:20:36;102502.22;;;4.39;100.00
54262;BME280;40174;52.364;6.452;2022-09-21T06:23:04;102506.47;;;4.43;100.00
54262;BME280;40174;52.364;6.452;2022-09-21T06:25:32;102508.94;;;4.49;100.00
54262;BME280;40174;52.364;6.452;2022-09-21T06:28:01;102507.88;;;4.55;100.00
54262;BME280;40174;52.364;6.452;2022-09-21T06:30:29;102495.69;;;4.55;100.00
54262;BME280;40174;52.364;6.452;2022-09-21T06:32:58;102502.59;;;4.58;100.00
54262;BME280;40174;52.364;6.452;2022-09-21T06:35:24;102500.66;;;4.65;100.00
54262;BME280;40174;52.364;6.452;2022-09-21T06:37:56;102510.03;;;4.72;100.00
54262;BME280;40174;52.364;6.452;2022-09-21T06:40:23;102505.63;;;4.74;100.00
54262;BME280;40174;52.364;6.452;2022-09-21T06:42:54;102503.75;;;4.77;100.00
54262;BME280;40174;52.364;6.452;2022-09-21T06:45:21;102502.72;;;4.83;100.00
54262;BME280;40174;52.364;6.452;2022-09-21T06:47:47;102502.69;;;4.85;100.00
54262;BME280;40174;52.364;6.452;2022-09-21T06:50:14;102501.63;;;4.90;100.00
54262;BME280;40174;52.364;6.452;2022-09-21T06:52:40;102500.53;;;4.97;100.00
54262;BME280;40174;52.364;6.452;2022-09-21T06:55:09;102504.72;;;5.05;100.00
54262;BME280;40174;52.364;6.452;2022-09-21T06:57:36;102500.28;;;5.07;100.00
54262;BME280;40174;52.364;6.452;2022-09-21T07:00:03;102493.13;;;5.12;100.00
54262;BME280;40174;52.364;6.452;2022-09-21T07:02:30;102492.13;;;5.16;100.00
54262;BME280;40174;52.364;6.452;2022-09-21T07:04:57;102496.34;;;5.20;100.00
54262;BME280;40174;52.364;6.452;2022-09-21T07:07:24;102499.78;;;5.22;100.00
54262;BME280;40174;52.364;6.452;2022-09-21T07:09:51;102503.16;;;5.27;100.00
54262;BME280;40174;52.364;6.452;2022-09-21T07:12:19;102503.81;;;5.34;100.00
54262;BME280;40174;52.364;6.452;2022-09-21T07:14:46;102508.69;;;5.45;100.00
54262;BME280;40174;52.364;6.452;2022-09-21T07:17:12;102506.81;;;5.50;100.00
54262;BME280;40174;52.364;6.452;2022-09-21T07:19:39;102501.25;;;5.59;100.00
54262;BME280;40174;52.364;6.452;2022-09-21T07:22:06;102505.44;;;5.65;100.00
54262;BME280;40174;52.364;6.452;2022-09-21T07:24:33;102507.16;;;5.66;100.00
54262;BME280;40174;52.364;6.452;2022-09-21T07:26:59;102509.16;;;5.84;100.00
54262;BME280;40174;52.364;6.452;2022-09-21T07:29:27;102509.13;;;5.86;100.00
54262;BME280;40174;52.364;6.452;2022-09-21T07:31:54;102511.34;;;5.98;100.00
54262;BME280;40174;52.364;6.452;2022-09-21T07:34:20;102512.84;;;6.05;100.00
54262;BME280;40174;52.364;6.452;2022-09-21T07:36:47;102516.06;;;6.13;100.00
54262;BME280;40174;52.364;6.452;2022-09-21T07:39:15;102516.06;;;6.13;100.00
54262;BME280;40174;52.364;6.452;2022-09-21T07:41:42;102515.59;;;6.27;100.00
54262;BME280;40174;52.364;6.452;2022-09-21T07:44:08;102517.78;;;6.39;100.00
54262;BME280;40174;52.364;6.452;2022-09-21T07:46:36;102519.88;;;6.55;100.00
54262;BME280;40174;52.364;6.452;2022-09-21T07:49:03;102514.31;;;6.62;100.00
54262;BME280;40174;52.364;6.452;2022-09-21T07:51:30;102522.78;;;6.71;100.00
54262;BME280;40174;52.364;6.452;2022-09-21T07:53:57;102512.03;;;6.77;100.00
54262;BME280;40174;52.364;6.452;2022-09-21T07:56:24;102513.28;;;6.90;100.00
54262;BME280;40174;52.364;6.452;2022-09-21T07:58:51;102511.72;;;7.08;100.00
54262;BME280;40174;52.364;6.452;2022-09-21T08:01:32;102506.88;;;7.19;100.00
54262;BME280;40174;52.364;6.452;2022-09-21T08:04:01;102516.38;;;7.45;100.00
54262;BME280;40174;52.364;6.452;2022-09-21T08:06:30;102508.34;;;7.48;100.00
54262;BME280;40174;52.364;6.452;2022-09-21T08:08:57;102520.41;;;7.54;100.00
54262;BME280;40174;52.364;6.452;2022-09-21T08:11:25;102516.47;;;7.64;100.00
54262;BME280;40174;52.364;6.452;2022-09-21T08:13:53;102516.44;;;7.66;100.00
54262;BME280;40174;52.364;6.452;2022-09-21T08:16:21;102505.72;;;7.91;100.00
54262;BME280;40174;52.364;6.452;2022-09-21T08:18:48;102521.59;;;8.10;100.00
54262;BME280;40174;52.364;6.452;2022-09-21T08:21:17;102518.53;;;8.21;100.00
54262;BME280;40174;52.364;6.452;2022-09-21T08:23:44;102518.81;;;8.33;100.00
54262;BME280;40174;52.364;6.452;2022-09-21T08:26:14;102526.72;;;8.33;100.00
54262;BME280;40174;52.364;6.452;2022-09-21T08:28:44;102520.22;;;8.42;100.00
54262;BME280;40174;52.364;6.452;2022-09-21T08:31:14;102511.00;;;8.71;100.00
54262;BME280;40174;52.364;6.452;2022-09-21T08:33:41;102517.06;;;8.73;100.00
54262;BME280;40174;52.364;6.452;2022-09-21T08:36:08;102514.50;;;8.91;100.00
54262;BME280;40174;52.364;6.452;2022-09-21T08:38:37;102524.59;;;9.19;100.00
54262;BME280;40174;52.364;6.452;2022-09-21T08:41:13;102517.47;;;9.21;100.00
54262;BME280;40174;52.364;6.452;2022-09-21T08:43:42;102517.84;;;9.50;100.00
54262;BME280;40174;52.364;6.452;2022-09-21T08:46:14;102520.38;;;9.70;100.00
54262;BME280;40174;52.364;6.452;2022-09-21T08:48:46;102528.22;;;9.72;100.00
54262;BME280;40174;52.364;6.452;2022-09-21T08:51:16;102534.44;;;10.06;100.00
54262;BME280;40174;52.364;6.452;2022-09-21T08:53:49;102530.72;;;10.27;100.00
54262;BME280;40174;52.364;6.452;2022-09-21T08:56:19;102529.78;;;10.46;100.00
54262;BME280;40174;52.364;6.452;2022-09-21T08:58:47;102530.53;;;10.48;100.00
54262;BME280;40174;52.364;6.452;2022-09-21T09:01:30;102537.13;;;10.56;100.00
54262;BME280;40174;52.364;6.452;2022-09-21T09:04:13;102528.22;;;10.75;100.00
54262;BME280;40174;52.364;6.452;2022-09-21T09:06:50;102538.09;;;10.87;100.00
54262;BME280;40174;52.364;6.452;2022-09-21T09:09:36;102543.00;;;11.11;100.00
54262;BME280;40174;52.364;6.452;2022-09-21T09:12:16;102539.94;;;11.18;100.00
54262;BME280;40174;52.364;6.452;2022-09-21T09:15:06;102544.84;;;11.56;100.00
54262;BME280;40174;52.364;6.452;2022-09-21T09:17:47;102540.78;;;11.81;100.00
54262;BME280;40174;52.364;6.452;2022-09-21T09:20:18;102544.19;;;11.99;100.00
54262;BME280;40174;52.364;6.452;2022-09-21T09:22:48;102551.09;;;12.01;100.00
54262;BME280;40174;52.364;6.452;2022-09-21T09:25:21;102545.00;;;12.30;100.00
54262;BME280;40174;52.364;6.452;2022-09-21T09:27:52;102547.38;;;12.48;100.00
54262;BME280;40174;52.364;6.452;2022-09-21T09:30:22;102552.03;;;12.59;100.00
54262;BME280;40174;52.364;6.452;2022-09-21T09:32:54;102548.94;;;12.67;100.00
54262;BME280;40174;52.364;6.452;2022-09-21T09:35:28;102540.09;;;12.81;100.00
54262;BME280;40174;52.364;6.452;2022-09-21T09:37:57;102556.75;;;13.12;100.00
54262;BME280;40174;52.364;6.452;2022-09-21T09:40:39;102550.09;;;13.04;100.00
54262;BME280;40174;52.364;6.452;2022-09-21T09:43:18;102551.97;;;13.31;100.00
54262;BME280;40174;52.364;6.452;2022-09-21T09:45:50;102546.56;;;13.33;100.00
54262;BME280;40174;52.364;6.452;2022-09-21T09:48:36;102539.22;;;13.50;100.00
54262;BME280;40174;52.364;6.452;2022-09-21T09:51:08;102546.72;;;13.71;100.00
54262;BME280;40174;52.364;6.452;2022-09-21T09:53:36;102549.53;;;13.95;100.00
54262;BME280;40174;52.364;6.452;2022-09-21T09:56:05;102554.25;;;14.17;100.00
54262;BME280;40174;52.364;6.452;2022-09-21T09:58:37;102541.50;;;14.35;100.00
54262;BME280;40174;52.364;6.452;2022-09-21T10:01:05;102550.34;;;14.48;100.00
54262;BME280;40174;52.364;6.452;2022-09-21T10:03:31;102548.34;;;14.65;100.00
54262;BME280;40174;52.364;6.452;2022-09-21T10:05:58;102545.84;;;14.87;100.00
54262;BME280;40174;52.364;6.452;2022-09-21T10:08:39;102543.78;;;15.04;100.00
54262;BME280;40174;52.364;6.452;2022-09-21T10:11:09;102544.28;;;15.09;100.00
54262;BME280;40174;52.364;6.452;2022-09-21T10:13:37;102549.72;;;15.20;99.81
54262;BME280;40174;52.364;6.452;2022-09-21T10:16:10;102545.63;;;15.27;96.18
54262;BME280;40174;52.364;6.452;2022-09-21T10:18:43;102536.22;;;15.34;93.26
54262;BME280;40174;52.364;6.452;2022-09-21T10:21:16;102535.31;;;15.23;87.72
54262;BME280;40174;52.364;6.452;2022-09-21T10:23:45;102538.84;;;15.47;93.01
54262;BME280;40174;52.364;6.452;2022-09-21T10:26:15;102526.75;;;15.54;86.76
54262;BME280;40174;52.364;6.452;2022-09-21T10:28:54;102535.84;;;15.52;80.73
54262;BME280;40174;52.364;6.452;2022-09-21T10:31:23;102529.06;;;15.59;83.39
54262;BME280;40174;52.364;6.452;2022-09-21T10:33:53;102526.63;;;15.80;84.77
54262;BME280;40174;52.364;6.452;2022-09-21T10:36:28;102528.97;;;15.96;84.80
54262;BME280;40174;52.364;6.452;2022-09-21T10:38:57;102519.44;;;16.16;82.79
54262;BME280;40174;52.364;6.452;2022-09-21T10:41:37;102530.50;;;16.34;80.56
54262;BME280;40174;52.364;6.452;2022-09-21T10:44:12;102524.22;;;16.24;72.63
54262;BME280;40174;52.364;6.452;2022-09-21T10:46:41;102521.56;;;16.35;78.56
54262;BME280;40174;52.364;6.452;2022-09-21T10:49:14;102532.22;;;16.57;78.78
54262;BME280;40174;52.364;6.452;2022-09-21T10:51:43;102524.69;;;16.74;78.02
54262;BME280;40174;52.364;6.452;2022-09-21T10:54:18;102530.66;;;17.00;78.76
54262;BME280;40174;52.364;6.452;2022-09-21T10:56:56;102522.09;;;17.29;80.80
54262;BME280;40174;52.364;6.452;2022-09-21T10:59:25;102531.25;;;17.47;74.88
54262;BME280;40174;52.364;6.452;2022-09-21T11:01:54;102530.78;;;17.42;66.80
54262;BME280;40174;52.364;6.452;2022-09-21T11:04:28;102528.75;;;17.34;66.29
54262;BME280;40174;52.364;6.452;2022-09-21T11:07:01;102528.09;;;17.42;66.28
54262;BME280;40174;52.364;6.452;2022-09-21T11:09:34;102522.09;;;17.61;69.95
54262;BME280;40174;52.364;6.452;2022-09-21T11:12:08;102528.00;;;17.97;74.88
54262;BME280;40174;52.364;6.452;2022-09-21T11:14:47;102529.38;;;17.91;67.22
54262;BME280;40174;52.364;6.452;2022-09-21T11:17:19;102524.47;;;18.17;74.44
54262;BME280;40174;52.364;6.452;2022-09-21T11:19:53;102523.28;;;18.31;65.99
54262;BME280;40174;52.364;6.452;2022-09-21T11:22:29;102527.72;;;18.42;65.84
54262;BME280;40174;52.364;6.452;2022-09-21T11:25:03;102524.44;;;18.38;67.75
54262;BME280;40174;52.364;6.452;2022-09-21T11:27:38;102523.78;;;17.94;70.63
54262;BME280;40174;52.364;6.452;2022-09-21T11:30:10;102523.56;;;17.54;71.85
54262;BME280;40174;52.364;6.452;2022-09-21T11:32:55;102522.94;;;17.29;73.29
54262;BME280;40174;52.364;6.452;2022-09-21T11:35:41;102517.03;;;17.03;73.47
54262;BME280;40174;52.364;6.452;2022-09-21T11:38:19;102516.44;;;16.88;75.23
54262;BME280;40174;52.364;6.452;2022-09-21T11:41:00;102511.75;;;16.80;75.73
54262;BME280;40174;52.364;6.452;2022-09-21T11:43:39;102514.28;;;16.71;74.48
54262;BME280;40174;52.364;6.452;2022-09-21T11:46:18;102513.41;;;16.59;75.36
54262;BME280;40174;52.364;6.452;2022-09-21T11:49:00;102507.47;;;16.55;75.23
54262;BME280;40174;52.364;6.452;2022-09-21T11:51:42;102501.31;;;16.44;74.77
54262;BME280;40174;52.364;6.452;2022-09-21T11:54:25;102500.19;;;16.35;75.75
54262;BME280;40174;52.364;6.452;2022-09-21T11:56:59;102498.28;;;16.37;78.08
54262;BME280;40174;52.364;6.452;2022-09-21T11:59:44;102493.78;;;16.49;80.05
54262;BME280;40174;52.364;6.452;2022-09-21T12:02:32;102490.47;;;16.34;75.96
54262;BME280;40174;52.364;6.452;2022-09-21T12:05:05;102486.84;;;16.57;76.48
54262;BME280;40174;52.364;6.452;2022-09-21T12:07:54;102487.56;;;16.93;72.96
54262;BME280;40174;52.364;6.452;2022-09-21T12:10:37;102482.81;;;16.97;73.57
54262;BME280;40174;52.364;6.452;2022-09-21T12:13:10;102492.41;;;16.88;72.51
54262;BME280;40174;52.364;6.452;2022-09-21T12:15:46;102479.56;;;16.71;74.38
54262;BME280;40174;52.364;6.452;2022-09-21T12:18:19;102482.00;;;16.62;75.42
54262;BME280;40174;52.364;6.452;2022-09-21T12:20:54;102480.78;;;16.55;75.65
54262;BME280;40174;52.364;6.452;2022-09-21T12:23:28;102480.44;;;16.49;75.35
54262;BME280;40174;52.364;6.452;2022-09-21T12:25:59;102472.53;;;16.36;73.52
54262;BME280;40174;52.364;6.452;2022-09-21T12:28:29;102472.41;;;16.26;75.82
54262;BME280;40174;52.364;6.452;2022-09-21T12:31:02;102470.13;;;16.21;75.22
54262;BME280;40174;52.364;6.452;2022-09-21T12:33:34;102472.41;;;16.15;74.23
54262;BME280;40174;52.364;6.452;2022-09-21T12:36:09;102465.50;;;16.12;75.34
54262;BME280;40174;52.364;6.452;2022-09-21T12:38:42;102469.97;;;16.12;76.68
54262;BME280;40174;52.364;6.452;2022-09-21T12:41:14;102464.41;;;16.60;77.34
54262;BME280;40174;52.364;6.452;2022-09-21T12:43:46;102462.78;;;17.02;71.75
54262;BME280;40174;52.364;6.452;2022-09-21T12:46:20;102465.16;;;17.49;71.21
54262;BME280;40174;52.364;6.452;2022-09-21T12:48:47;102466.88;;;17.92;69.74
54262;BME280;40174;52.364;6.452;2022-09-21T12:51:19;102463.25;;;18.24;65.73
54262;BME280;40174;52.364;6.452;2022-09-21T12:53:52;102462.19;;;18.36;59.14
54262;BME280;40174;52.364;6.452;2022-09-21T12:56:28;102453.97;;;18.68;62.52
54262;BME280;40174;52.364;6.452;2022-09-21T12:59:12;102459.28;;;18.99;61.68
54262;BME280;40174;52.364;6.452;2022-09-21T13:01:44;102458.88;;;19.04;58.80
54262;BME280;40174;52.364;6.452;2022-09-21T13:04:33;102454.88;;;18.88;57.75
54262;BME280;40174;52.364;6.452;2022-09-21T13:07:26;102459.00;;;19.02;58.38